Time;durP1;ratioP1;P1;durP2;ratioP2;P2;SDS_P1;SDS_P2;PMS_P1;PMS_P2;Temp;Humidity;BMP_temperature;BMP_pressure;BME280_temperature;BME280_humidity;BME280_pressure;Samples;Min_cycle;Max_cycle;Signal;HPM_P1;HPM_P2
2023/10/15 00:01:50;;;;;;;11.13;7.82;;;;;;;11.51;99.68;92853.25;5064038;28;20917;-73
2023/10/15 00:04:17;;;;;;;11.50;5.80;;;;;;;11.44;99.32;92850.78;5063656;28;20052;-73
2023/10/15 00:06:44;;;;;;;8.57;6.07;;;;;;;11.40;99.48;92841.19;5059850;28;20079;-73
2023/10/15 00:09:13;;;;;;;11.00;6.57;;;;;;;11.36;99.38;92833.13;5065175;28;20049;-73
2023/10/15 00:11:40;;;;;;;10.20;6.43;;;;;;;11.47;99.85;92847.78;5065219;28;20155;-73
2023/10/15 00:14:08;;;;;;;10.75;6.97;;;;;;;11.47;98.64;92839.28;5062479;28;20059;-73
2023/10/15 00:16:35;;;;;;;10.50;7.68;;;;;;;11.48;98.63;92831.34;5061901;28;20056;-73
2023/10/15 00:19:09;;;;;;;11.35;6.85;;;;;;;11.53;98.85;92835.81;5061721;28;20527;-73
2023/10/15 00:21:36;;;;;;;11.18;6.75;;;;;;;11.56;98.69;92837.16;5057911;28;20057;-73
2023/10/15 00:24:06;;;;;;;13.18;7.20;;;;;;;11.56;99.31;92837.94;5065189;28;20045;-73
2023/10/15 00:26:35;;;;;;;10.45;6.63;;;;;;;11.58;98.34;92835.16;5060175;28;20044;-73
2023/10/15 00:29:01;;;;;;;9.27;6.82;;;;;;;11.41;98.63;92807.53;5059784;28;20040;-73
2023/10/15 00:31:30;;;;;;;13.07;7.03;;;;;;;11.52;97.95;92823.19;5063474;28;20049;-73
2023/10/15 00:33:56;;;;;;;11.80;6.88;;;;;;;11.55;97.74;92828.66;5064455;28;20398;-73
2023/10/15 00:36:23;;;;;;;12.98;7.18;;;;;;;11.54;97.49;92834.03;5059997;28;20048;-73
2023/10/15 00:38:50;;;;;;;10.95;6.38;;;;;;;11.55;98.24;92831.22;5066389;28;20049;-73
2023/10/15 00:41:17;;;;;;;11.65;7.22;;;;;;;11.47;98.50;92829.00;5063447;28;20049;-73
2023/10/15 00:43:52;;;;;;;11.32;7.22;;;;;;;11.47;98.34;92819.50;5060431;28;20493;-73
2023/10/15 00:46:19;;;;;;;9.68;7.03;;;;;;;11.38;98.36;92817.50;5058516;28;20048;-73
2023/10/15 00:48:47;;;;;;;11.23;6.93;;;;;;;11.46;97.50;92825.66;5063746;28;20539;-73
2023/10/15 00:51:16;;;;;;;10.63;6.65;;;;;;;11.46;97.47;92823.06;5059500;28;20040;-73
2023/10/15 00:53:50;;;;;;;11.30;6.88;;;;;;;11.42;96.99;92816.00;5066820;28;20131;-73
2023/10/15 00:56:22;;;;;;;12.45;6.32;;;;;;;11.47;96.57;92821.28;5066710;28;20459;-73
2023/10/15 00:59:08;;;;;;;12.70;6.88;;;;;;;11.47;95.85;92821.28;5059505;28;20049;-73
2023/10/15 01:01:35;;;;;;;11.00;6.15;;;;;;;11.43;96.38;92823.50;5058821;28;20155;-74
2023/10/15 01:04:06;;;;;;;12.27;7.07;;;;;;;11.34;96.80;92817.16;5059732;28;20048;-73
2023/10/15 01:06:37;;;;;;;12.70;7.32;;;;;;;11.16;97.75;92793.09;5062554;28;20049;-73
2023/10/15 01:09:09;;;;;;;18.27;7.60;;;;;;;11.35;99.78;92814.34;5062296;28;20071;-73
2023/10/15 01:11:37;;;;;;;12.45;7.60;;;;;;;11.41;100.00;92809.31;5064535;28;20074;-73
2023/10/15 01:14:04;;;;;;;18.50;7.30;;;;;;;11.21;99.84;92793.22;5065308;28;20052;-73
2023/10/15 01:16:36;;;;;;;13.63;8.50;;;;;;;11.35;99.59;92813.56;5062269;28;20351;-73
2023/10/15 01:19:15;;;;;;;15.43;9.05;;;;;;;11.11;99.26;92775.00;5062877;28;20053;-73
2023/10/15 01:21:46;;;;;;;17.00;8.05;;;;;;;11.30;99.81;92808.31;5060975;28;20048;-73
2023/10/15 01:24:18;;;;;;;15.85;8.00;;;;;;;11.34;98.85;92815.34;5065837;28;20048;-73
2023/10/15 01:26:59;;;;;;;15.25;8.45;;;;;;;11.28;99.28;92810.31;5061660;28;20793;-73
2023/10/15 01:29:27;;;;;;;14.52;7.28;;;;;;;11.25;99.98;92813.34;5060320;28;20056;-72
2023/10/15 01:31:58;;;;;;;13.05;7.75;;;;;;;11.27;99.36;92804.41;5060545;28;20127;-72
2023/10/15 01:34:25;;;;;;;15.00;7.25;;;;;;;11.24;99.79;92809.97;5063488;28;20497;-72
2023/10/15 01:36:53;;;;;;;10.57;7.72;;;;;;;11.22;100.00;92806.88;5061995;28;20056;-73
2023/10/15 01:39:30;;;;;;;11.48;6.68;;;;;;;11.25;99.85;92808.22;5062628;28;20589;-72
2023/10/15 01:42:03;;;;;;;12.20;7.35;;;;;;;11.29;99.44;92812.66;5060582;28;20051;-72
2023/10/15 01:44:31;;;;;;;12.63;7.05;;;;;;;11.30;100.00;92808.31;5063602;28;20041;-73
2023/10/15 01:47:08;;;;;;;10.88;7.05;;;;;;;10.96;100.00;92771.09;5063365;28;20076;-73
2023/10/15 01:49:35;;;;;;;12.90;7.50;;;;;;;11.15;100.00;92806.97;5058102;28;20094;-73
2023/10/15 01:52:09;;;;;;;12.60;8.23;;;;;;;11.01;100.00;92798.69;5064890;28;20056;-72
2023/10/15 01:54:36;;;;;;;17.70;9.55;;;;;;;10.77;100.00;92801.22;5066215;28;20045;-73
2023/10/15 01:57:06;;;;;;;14.98;9.15;;;;;;;10.76;100.00;92798.88;5067734;28;20055;-72
2023/10/15 01:59:45;;;;;;;13.90;7.70;;;;;;;10.70;100.00;92800.56;5063235;28;20070;-73
2023/10/15 02:02:13;;;;;;;10.35;6.72;;;;;;;10.62;100.00;92782.88;5066851;28;20122;-73
2023/10/15 02:04:45;;;;;;;13.20;8.50;;;;;;;10.66;100.00;92800.19;5063553;28;20044;-73
2023/10/15 02:07:16;;;;;;;13.60;8.77;;;;;;;10.54;100.00;92797.59;5064680;28;20440;-73
2023/10/15 02:09:43;;;;;;;12.05;7.88;;;;;;;10.62;100.00;92798.28;5065218;28;20048;-73
2023/10/15 02:12:12;;;;;;;13.70;8.40;;;;;;;10.61;100.00;92794.16;5069382;28;20175;-73
2023/10/15 02:14:44;;;;;;;14.80;8.65;;;;;;;10.44;100.00;92797.34;5063182;28;20127;-73
2023/10/15 02:17:13;;;;;;;13.85;7.93;;;;;;;10.29;100.00;92792.59;5068887;28;20780;-73
2023/10/15 02:19:41;;;;;;;12.45;7.90;;;;;;;10.32;100.00;92797.25;5068763;28;20056;-73
2023/10/15 02:22:12;;;;;;;13.82;8.25;;;;;;;10.24;100.00;92793.22;5063224;28;20097;-73
2023/10/15 02:24:46;;;;;;;13.20;8.18;;;;;;;10.25;100.00;92792.25;5066595;28;20041;-73
2023/10/15 02:27:17;;;;;;;13.65;8.23;;;;;;;10.14;100.00;92775.00;5068312;28;20052;-73
2023/10/15 02:29:49;;;;;;;14.57;7.85;;;;;;;10.33;100.00;92791.16;5065668;28;20564;-72
2023/10/15 02:32:21;;;;;;;13.88;8.23;;;;;;;10.39;100.00;92797.19;5067652;28;20086;-73
2023/10/15 02:34:51;;;;;;;13.95;7.97;;;;;;;10.37;100.00;92794.06;5065986;28;20428;-73
2023/10/15 02:37:19;;;;;;;16.90;8.85;;;;;;;10.21;100.00;92778.25;5068716;28;20094;-73
2023/10/15 02:39:50;;;;;;;17.65;9.70;;;;;;;10.30;100.00;92794.13;5060108;28;20127;-73
2023/10/15 02:42:19;;;;;;;13.88;8.95;;;;;;;10.07;100.00;92766.59;5067335;28;20501;-74
2023/10/15 02:44:50;;;;;;;15.85;9.07;;;;;;;10.09;100.00;92765.38;5068216;28;20049;-73
2023/10/15 02:47:28;;;;;;;17.90;9.20;;;;;;;10.27;100.00;92792.00;5068489;28;20086;-73
2023/10/15 02:50:00;;;;;;;14.18;9.10;;;;;;;10.04;100.00;92757.53;5060213;28;20597;-73
2023/10/15 02:52:35;;;;;;;18.42;8.90;;;;;;;10.28;100.00;92788.44;5068598;28;20053;-73
2023/10/15 02:55:07;;;;;;;14.80;8.48;;;;;;;10.27;100.00;92792.78;5067259;28;20052;-73
2023/10/15 02:57:38;;;;;;;19.65;9.43;;;;;;;10.29;100.00;92784.88;5065384;28;20416;-73
2023/10/15 03:00:13;;;;;;;15.35;9.60;;;;;;;10.22;100.00;92777.25;5065850;28;20048;-73
2023/10/15 03:02:43;;;;;;;22.60;10.52;;;;;;;10.33;100.00;92785.22;5069383;28;20086;-74
2023/10/15 03:05:13;;;;;;;21.38;11.27;;;;;;;10.35;100.00;92796.84;5064132;28;20056;-74
2023/10/15 03:07:42;;;;;;;30.02;9.98;;;;;;;10.39;100.00;92797.19;5064657;28;20052;-74
2023/10/15 03:10:11;;;;;;;18.15;10.20;;;;;;;10.39;100.00;92794.63;5062764;28;20106;-74
2023/10/15 03:12:43;;;;;;;17.88;9.63;;;;;;;10.41;100.00;92801.09;5065082;28;20048;-74
2023/10/15 03:15:13;;;;;;;17.52;9.88;;;;;;;10.38;100.00;92800.75;5065270;28;20052;-75
2023/10/15 03:17:41;;;;;;;18.20;9.50;;;;;;;10.36;100.00;92800.97;5067789;28;20067;-74
2023/10/15 03:20:23;;;;;;;18.90;10.18;;;;;;;10.36;100.00;92797.59;5067969;28;20055;-74
2023/10/15 03:22:58;;;;;;;19.13;9.18;;;;;;;10.42;100.00;92799.31;5063377;28;20803;-74
2023/10/15 03:25:26;;;;;;;15.38;8.50;;;;;;;10.36;100.00;92800.97;5064099;28;20050;-74
2023/10/15 03:27:59;;;;;;;16.63;9.07;;;;;;;10.21;100.00;92785.16;5063023;28;20566;-74
2023/10/15 03:30:26;;;;;;;17.75;8.73;;;;;;;10.29;100.00;92800.28;5064918;28;20045;-74
2023/10/15 03:32:54;;;;;;;14.27;8.65;;;;;;;10.25;100.00;92794.00;5067418;28;20044;-75
2023/10/15 03:35:32;;;;;;;15.68;8.15;;;;;;;10.09;100.00;92777.44;5061859;28;20041;-75
2023/10/15 03:38:04;;;;;;;16.83;8.65;;;;;;;10.14;100.00;92792.97;5064022;28;20476;-75
2023/10/15 03:40:32;;;;;;;15.98;8.25;;;;;;;10.16;100.00;92793.53;5060453;28;20053;-74
2023/10/15 03:43:06;;;;;;;12.90;8.57;;;;;;;10.11;100.00;92795.97;5067563;28;20054;-74
2023/10/15 03:45:40;;;;;;;14.07;8.98;;;;;;;10.01;100.00;92788.78;5067701;28;20404;-75
2023/10/15 03:48:14;;;;;;;12.98;8.40;;;;;;;10.01;100.00;92792.13;5065167;28;20098;-74
2023/10/15 03:50:53;;;;;;;12.98;7.93;;;;;;;10.03;100.00;92795.25;5064338;28;20051;-74
2023/10/15 03:53:21;;;;;;;12.68;7.80;;;;;;;10.01;100.00;92786.97;5060449;28;20048;-74
2023/10/15 03:55:49;;;;;;;13.70;7.93;;;;;;;9.97;100.00;92785.88;5067042;28;20053;-74
2023/10/15 03:58:21;;;;;;;12.45;7.70;;;;;;;9.96;100.00;92784.28;5063657;28;20052;-74
2023/10/15 04:00:54;;;;;;;15.60;7.65;;;;;;;9.70;100.00;92749.47;5067235;28;20097;-74
2023/10/15 04:03:23;;;;;;;11.82;7.57;;;;;;;9.87;100.00;92778.66;5067302;28;20040;-73
2023/10/15 04:05:58;;;;;;;12.65;7.72;;;;;;;9.93;100.00;92773.66;5062095;28;20519;-74
2023/10/15 04:08:25;;;;;;;12.85;7.72;;;;;;;9.93;100.00;92784.72;5060202;28;20515;-74
2023/10/15 04:10:58;;;;;;;16.60;8.32;;;;;;;9.86;100.00;92786.59;5066798;28;20053;-74
2023/10/15 04:13:27;;;;;;;16.83;8.40;;;;;;;9.81;100.00;92782.09;5063759;28;20049;-74
2023/10/15 04:15:55;;;;;;;17.65;9.63;;;;;;;9.81;100.00;92771.84;5065430;28;20057;-74
2023/10/15 04:18:23;;;;;;;19.52;11.60;;;;;;;9.65;100.00;92770.66;5061641;28;20059;-74
2023/10/15 04:20:50;;;;;;;27.80;12.90;;;;;;;9.72;100.00;92775.72;5062769;28;20048;-74
2023/10/15 04:23:30;;;;;;;20.00;12.05;;;;;;;9.69;100.00;92784.63;5061962;28;20067;-74
2023/10/15 04:26:00;;;;;;;22.92;13.32;;;;;;;9.62;100.00;92782.13;5065575;28;20060;-74
2023/10/15 04:28:28;;;;;;;19.25;10.93;;;;;;;9.52;100.00;92761.31;5063400;28;20048;-74
2023/10/15 04:30:56;;;;;;;16.58;10.05;;;;;;;9.62;100.00;92782.13;5066411;28;20148;-74
2023/10/15 04:33:25;;;;;;;16.90;10.13;;;;;;;9.65;100.00;92785.22;5063144;28;20412;-74
2023/10/15 04:35:52;;;;;;;19.83;10.80;;;;;;;9.68;100.00;92784.81;5060864;28;20056;-74
2023/10/15 04:38:22;;;;;;;19.10;11.50;;;;;;;9.62;100.00;92789.00;5063655;28;20914;-74
2023/10/15 04:40:59;;;;;;;20.63;10.43;;;;;;;9.55;100.00;92790.88;5062528;28;20098;-74
2023/10/15 04:43:29;;;;;;;17.90;10.18;;;;;;;9.09;100.00;92737.28;5065728;28;20052;-74
2023/10/15 04:45:57;;;;;;;22.45;11.77;;;;;;;9.42;100.00;92789.22;5060206;28;20049;-75
2023/10/15 04:48:27;;;;;;;18.20;12.18;;;;;;;9.36;100.00;92790.88;5063184;28;20055;-75
2023/10/15 04:50:54;;;;;;;16.73;11.95;;;;;;;9.28;100.00;92778.31;5064443;28;20071;-74
2023/10/15 04:53:26;;;;;;;31.70;20.95;;;;;;;9.10;100.00;92767.03;5062115;28;20045;-75
2023/10/15 04:55:53;;;;;;;18.80;11.18;;;;;;;9.23;100.00;92797.66;5062799;28;20044;-75
2023/10/15 04:58:20;;;;;;;18.75;11.45;;;;;;;9.18;100.00;92801.88;5061683;28;20048;-74
2023/10/15 05:00:49;;;;;;;16.17;8.98;;;;;;;9.15;100.00;92805.63;5063084;28;20052;-74
2023/10/15 05:03:17;;;;;;;14.77;8.85;;;;;;;8.93;100.00;92813.69;5063820;28;20362;-75
2023/10/15 05:05:44;;;;;;;14.63;10.75;;;;;;;8.88;100.00;92807.63;5064365;28;20569;-74
2023/10/15 05:08:12;;;;;;;32.58;21.52;;;;;;;8.58;100.00;92772.38;5072095;28;20063;-73
2023/10/15 05:10:44;;;;;;;27.00;19.63;;;;;;;8.82;100.00;92801.56;5067786;28;20945;-73
2023/10/15 05:13:11;;;;;;;24.98;21.27;;;;;;;8.76;100.00;92805.75;5069850;28;20528;-73
2023/10/15 05:15:38;;;;;;;20.00;13.85;;;;;;;8.78;100.00;92805.53;5071605;28;20059;-73
2023/10/15 05:18:07;;;;;;;20.38;12.55;;;;;;;8.78;100.00;92808.88;5068154;28;20102;-74
2023/10/15 05:20:36;;;;;;;17.25;11.60;;;;;;;8.88;100.00;92805.06;5067809;28;20511;-74
2023/10/15 05:23:03;;;;;;;20.48;14.10;;;;;;;8.86;100.00;92805.28;5068369;28;20071;-74
2023/10/15 05:25:30;;;;;;;21.30;14.40;;;;;;;8.97;100.00;92808.16;5070608;28;21079;-74
2023/10/15 05:27:59;;;;;;;20.65;12.93;;;;;;;9.04;100.00;92814.00;5067751;28;20047;-73
2023/10/15 05:30:26;;;;;;;20.65;13.30;;;;;;;9.06;100.00;92815.38;5068273;28;20091;-74
2023/10/15 05:32:53;;;;;;;20.95;12.35;;;;;;;9.13;100.00;92811.97;5071508;28;20496;-73
2023/10/15 05:35:21;;;;;;;23.50;14.60;;;;;;;9.26;100.00;92813.63;5070844;28;20055;-73
2023/10/15 05:37:48;;;;;;;21.13;12.95;;;;;;;9.36;100.00;92812.13;5081323;28;20052;-73
2023/10/15 05:40:16;;;;;;;19.08;12.43;;;;;;;9.52;100.00;92810.03;5070309;28;20052;-74
2023/10/15 05:42:42;;;;;;;20.42;12.15;;;;;;;9.59;100.00;92800.47;5073582;28;20117;-73
2023/10/15 05:45:10;;;;;;;20.42;12.05;;;;;;;9.80;100.00;92810.53;5087007;28;20496;-73
2023/10/15 05:47:37;;;;;;;19.92;12.55;;;;;;;9.91;100.00;92798.78;5067510;28;20052;-73
2023/10/15 05:50:05;;;;;;;19.95;11.50;;;;;;;10.06;100.00;92801.75;5068683;28;20057;-74
2023/10/15 05:52:33;;;;;;;20.38;11.15;;;;;;;10.17;100.00;92800.22;5070927;28;20052;-73
2023/10/15 05:55:01;;;;;;;23.23;11.55;;;;;;;10.32;100.00;92810.09;5076433;28;20055;-73
2023/10/15 05:57:28;;;;;;;25.15;12.43;;;;;;;10.42;100.00;92802.66;5070220;28;20125;-73
2023/10/15 05:59:55;;;;;;;27.83;13.15;;;;;;;10.61;100.00;92809.56;5069340;28;20088;-73
2023/10/15 06:02:22;;;;;;;23.25;11.93;;;;;;;10.60;100.00;92815.72;5063605;28;20068;-73
2023/10/15 06:04:49;;;;;;;15.63;11.98;;;;;;;10.40;100.00;92794.41;5075181;28;20432;-73
2023/10/15 06:07:16;;;;;;;22.08;11.80;;;;;;;10.62;100.00;92803.41;5069989;28;20052;-73
2023/10/15 06:09:45;;;;;;;21.73;11.52;;;;;;;10.67;100.00;92800.97;5069365;28;20072;-73
2023/10/15 06:12:13;;;;;;;19.15;12.38;;;;;;;10.80;100.00;92802.56;5076041;28;20084;-74
2023/10/15 06:14:40;;;;;;;23.65;10.43;;;;;;;10.81;100.00;92804.94;5076676;28;20096;-73
2023/10/15 06:17:06;;;;;;;20.45;12.05;;;;;;;10.91;100.00;92803.59;5067989;28;20432;-73
2023/10/15 06:19:34;;;;;;;18.55;10.13;;;;;;;10.96;100.00;92808.84;5072461;28;20059;-73
2023/10/15 06:22:01;;;;;;;16.35;10.35;;;;;;;11.01;100.00;92801.25;5072706;28;20056;-73
2023/10/15 06:24:28;;;;;;;19.80;9.52;;;;;;;11.10;100.00;92796.56;5067664;28;20138;-73
2023/10/15 06:26:56;;;;;;;17.17;9.75;;;;;;;11.21;100.00;92792.44;5071672;28;20055;-73
2023/10/15 06:29:23;;;;;;;19.15;10.00;;;;;;;11.31;100.00;92789.31;5065933;28;20060;-73
2023/10/15 06:31:49;;;;;;;15.00;9.68;;;;;;;11.39;100.00;92788.19;5070426;28;20055;-73
2023/10/15 06:34:16;;;;;;;17.05;9.70;;;;;;;11.44;100.00;92793.44;5072510;28;20123;-73
2023/10/15 06:36:43;;;;;;;16.75;9.45;;;;;;;11.52;100.00;92789.75;5068836;28;20046;-73
2023/10/15 06:39:10;;;;;;;18.50;9.27;;;;;;;11.69;100.00;92797.53;5079481;28;20064;-73
2023/10/15 06:41:37;;;;;;;18.88;10.07;;;;;;;11.87;100.00;92787.13;5072194;28;20049;-74
2023/10/15 06:44:08;;;;;;;18.20;10.18;;;;;;;11.98;100.00;92780.38;5075107;28;20126;-73
2023/10/15 06:46:35;;;;;;;18.80;11.00;;;;;;;12.18;100.00;92786.16;5077650;28;20124;-73
2023/10/15 06:49:02;;;;;;;26.92;13.05;;;;;;;12.16;100.00;92779.44;5070568;28;20049;-73
2023/10/15 06:51:28;;;;;;;30.02;15.77;;;;;;;12.32;100.00;92778.94;5082612;28;20131;-73
2023/10/15 06:53:55;;;;;;;31.63;14.38;;;;;;;12.51;100.00;92782.88;5075945;28;20052;-73
2023/10/15 06:56:22;;;;;;;34.08;14.85;;;;;;;12.44;100.00;92759.06;5076034;28;20541;-73
2023/10/15 06:58:49;;;;;;;28.55;14.00;;;;;;;12.76;100.00;92783.53;5073646;28;20059;-73
2023/10/15 07:01:17;;;;;;;35.78;15.30;;;;;;;12.77;99.88;92782.53;5073680;28;20056;-74
2023/10/15 07:03:44;;;;;;;29.20;15.05;;;;;;;12.91;99.70;92778.59;5074239;28;20045;-73
2023/10/15 07:06:11;;;;;;;31.02;15.77;;;;;;;13.10;99.78;92770.63;5082223;28;20048;-74
2023/10/15 07:08:38;;;;;;;33.53;15.35;;;;;;;13.34;98.42;92765.31;5082877;28;20048;-74
2023/10/15 07:11:05;;;;;;;37.42;17.45;;;;;;;13.47;96.20;92766.78;5068064;28;20045;-74
2023/10/15 07:13:34;;;;;;;39.22;17.42;;;;;;;13.57;96.98;92766.13;5075540;28;20550;-74
2023/10/15 07:16:01;;;;;;;33.95;16.73;;;;;;;13.78;95.66;92766.41;5086197;28;20056;-74
2023/10/15 07:18:32;;;;;;;35.60;16.35;;;;;;;13.99;94.27;92765.59;5086231;28;20039;-74
2023/10/15 07:21:00;;;;;;;34.60;15.77;;;;;;;13.98;94.52;92752.94;5071114;28;20052;-74
2023/10/15 07:23:27;;;;;;;37.60;15.65;;;;;;;14.02;94.94;92733.34;5067959;28;20051;-74
2023/10/15 07:25:53;;;;;;;39.38;18.38;;;;;;;14.35;93.14;92754.84;5075509;28;20055;-74
2023/10/15 07:28:21;;;;;;;37.70;17.60;;;;;;;14.66;92.06;92744.00;5073732;28;20044;-74
2023/10/15 07:30:49;;;;;;;41.47;17.02;;;;;;;14.87;91.13;92745.00;5069717;28;20052;-74
2023/10/15 07:33:16;;;;;;;36.25;15.65;;;;;;;15.03;89.95;92734.72;5070053;28;20071;-74
2023/10/15 07:35:46;;;;;;;33.78;15.52;;;;;;;15.32;89.21;92742.16;5081421;28;20048;-74
2023/10/15 07:38:13;;;;;;;36.22;14.48;;;;;;;15.51;88.11;92747.72;5080261;28;20072;-74
2023/10/15 07:40:40;;;;;;;31.15;12.05;;;;;;;15.75;86.40;92753.22;5073858;28;20048;-74
2023/10/15 07:43:08;;;;;;;36.40;12.18;;;;;;;16.01;85.21;92743.00;5069749;28;20056;-74
2023/10/15 07:45:37;;;;;;;31.20;11.13;;;;;;;15.94;84.71;92718.38;5070507;28;20493;-74
2023/10/15 07:48:07;;;;;;;32.75;11.85;;;;;;;16.32;83.57;92731.94;5070207;28;20048;-74
2023/10/15 07:50:35;;;;;;;30.45;10.57;;;;;;;16.67;81.24;92738.19;5073074;28;20056;-74
2023/10/15 07:53:04;;;;;;;25.38;9.70;;;;;;;16.81;81.53;92735.84;5069479;28;20211;-74
2023/10/15 07:55:31;;;;;;;23.10;8.50;;;;;;;17.03;79.99;92742.63;5070551;28;20182;-74
2023/10/15 07:57:58;;;;;;;21.60;8.75;;;;;;;17.14;79.45;92730.41;5071532;28;20054;-74
2023/10/15 08:00:26;;;;;;;15.25;7.18;;;;;;;17.38;78.37;92731.66;5072542;28;20504;-74
2023/10/15 08:02:57;;;;;;;15.70;7.32;;;;;;;17.17;77.84;92688.34;5069729;28;20063;-75
2023/10/15 08:05:24;;;;;;;14.45;7.40;;;;;;;17.68;77.25;92735.22;5068889;28;20101;-75
2023/10/15 08:07:52;;;;;;;17.08;7.30;;;;;;;17.80;77.18;92735.69;5070956;28;20052;-75
2023/10/15 08:10:20;;;;;;;12.65;6.68;;;;;;;17.94;76.60;92730.69;5069470;28;20055;-75
2023/10/15 08:12:48;;;;;;;13.55;6.35;;;;;;;18.19;75.72;92731.63;5068729;28;20055;-75
2023/10/15 08:15:15;;;;;;;14.30;6.43;;;;;;;18.04;74.15;92719.47;5066824;28;20473;-75
2023/10/15 08:17:42;;;;;;;11.63;5.60;;;;;;;18.39;73.53;92727.34;5068544;28;20055;-74
2023/10/15 08:20:10;;;;;;;10.73;6.20;;;;;;;18.42;72.31;92725.00;5069538;28;20576;-74
2023/10/15 08:22:40;;;;;;;15.70;6.10;;;;;;;18.49;72.67;92700.50;5073377;28;20056;-75
2023/10/15 08:25:13;;;;;;;22.17;7.38;;;;;;;18.83;72.72;92718.72;5071403;28;20056;-75
2023/10/15 08:27:41;;;;;;;16.38;6.43;;;;;;;19.00;70.25;92721.94;5069143;28;20156;-75
2023/10/15 08:30:12;;;;;;;16.42;6.90;;;;;;;19.15;70.54;92715.84;5068779;28;20188;-75
2023/10/15 08:32:39;;;;;;;25.38;7.53;;;;;;;19.38;70.87;92714.31;5069219;28;20171;-75
2023/10/15 08:35:08;;;;;;;17.95;7.40;;;;;;;19.62;69.44;92716.16;5069744;28;20087;-75
2023/10/15 08:37:35;;;;;;;25.92;7.97;;;;;;;19.79;69.39;92700.06;5069206;28;20052;-75
2023/10/15 08:40:04;;;;;;;18.30;7.20;;;;;;;20.02;68.24;92710.75;5069491;28;20055;-75
2023/10/15 08:42:36;;;;;;;23.50;8.30;;;;;;;20.26;67.83;92712.53;5070414;28;20441;-75
2023/10/15 08:45:08;;;;;;;21.45;6.60;;;;;;;20.37;66.96;92706.09;5068972;28;20440;-75
2023/10/15 08:47:36;;;;;;;21.02;7.68;;;;;;;20.46;64.95;92711.44;5070791;28;20055;-75
2023/10/15 08:50:03;;;;;;;15.52;5.75;;;;;;;20.60;63.75;92706.28;5070501;28;20052;-75
2023/10/15 08:52:31;;;;;;;10.57;4.75;;;;;;;20.77;61.50;92705.00;5071440;28;20067;-75
2023/10/15 08:55:00;;;;;;;8.00;4.60;;;;;;;20.85;62.38;92709.59;5068275;28;20126;-75
2023/10/15 08:57:27;;;;;;;8.07;3.80;;;;;;;20.89;60.64;92715.03;5070110;28;20048;-75
2023/10/15 08:59:57;;;;;;;11.75;4.10;;;;;;;21.04;61.26;92709.56;5078015;28;20056;-75
2023/10/15 09:02:27;;;;;;;11.25;4.00;;;;;;;21.24;61.71;92705.03;5064085;28;20349;-75
2023/10/15 09:04:54;;;;;;;11.15;3.90;;;;;;;21.59;62.10;92702.84;5073966;28;20044;-75
2023/10/15 09:07:21;;;;;;;12.35;4.93;;;;;;;21.80;60.47;92704.31;5076541;28;20544;-75
2023/10/15 09:09:49;;;;;;;12.57;4.20;;;;;;;21.96;59.57;92707.38;5080763;28;20051;-75
2023/10/15 09:12:16;;;;;;;7.53;3.38;;;;;;;22.06;55.83;92712.38;5080579;28;20075;-75
2023/10/15 09:14:43;;;;;;;7.70;3.78;;;;;;;22.17;56.36;92705.09;5076239;28;20040;-75
2023/10/15 09:17:11;;;;;;;9.07;3.92;;;;;;;22.37;55.89;92710.97;5072221;28;20052;-75
2023/10/15 09:19:41;;;;;;;5.70;2.60;;;;;;;22.47;54.25;92715.97;5071309;28;20075;-75
2023/10/15 09:22:14;;;;;;;9.35;3.42;;;;;;;22.61;55.11;92704.69;5077505;28;20153;-75
2023/10/15 09:24:41;;;;;;;8.75;3.78;;;;;;;22.72;55.42;92700.75;5081430;28;20463;-75
2023/10/15 09:27:08;;;;;;;6.00;2.92;;;;;;;22.79;52.42;92700.34;5078377;28;20063;-75
2023/10/15 09:29:35;;;;;;;7.07;2.97;;;;;;;22.68;52.31;92708.44;5074510;28;20057;-75
2023/10/15 09:32:04;;;;;;;7.15;2.72;;;;;;;22.79;52.89;92702.97;5071008;28;20044;-75
2023/10/15 09:34:31;;;;;;;7.93;2.95;;;;;;;22.64;52.12;92673.47;5080282;28;20433;-75
2023/10/15 09:37:00;;;;;;;7.43;2.85;;;;;;;22.81;51.15;92687.72;5073362;28;20052;-75
2023/10/15 09:39:28;;;;;;;9.82;3.22;;;;;;;22.69;52.04;92694.28;5076265;28;20098;-75
2023/10/15 09:41:55;;;;;;;15.80;3.55;;;;;;;22.87;54.59;92694.38;5085058;28;20051;-75
2023/10/15 09:44:22;;;;;;;10.20;3.92;;;;;;;23.09;53.71;92683.13;5061746;28;20080;-75
2023/10/15 09:46:49;;;;;;;8.82;3.28;;;;;;;23.30;53.74;92679.19;5079417;28;20052;-75
2023/10/15 09:49:18;;;;;;;7.68;3.45;;;;;;;23.42;51.27;92686.53;5080259;28;20056;-75
2023/10/15 09:51:48;;;;;;;7.15;3.20;;;;;;;23.45;50.30;92683.28;5071406;28;20048;-75
2023/10/15 09:54:20;;;;;;;9.30;4.00;;;;;;;23.58;51.11;92689.50;5072176;28;20058;-75
2023/10/15 09:56:48;;;;;;;5.63;2.72;;;;;;;23.62;49.35;92691.19;5067618;28;20049;-75
2023/10/15 09:59:15;;;;;;;8.00;3.85;;;;;;;22.87;50.97;92675.28;5069057;28;20080;-76
2023/10/15 10:01:47;;;;;;;7.40;2.90;;;;;;;22.96;52.29;92678.75;5085413;28;20984;-75
2023/10/15 10:04:40;;;;;;;7.97;3.70;;;;;;;23.07;51.87;92671.38;5075059;28;20091;-75
2023/10/15 10:07:35;;;;;;;6.88;3.10;;;;;;;22.82;51.64;92674.34;5072869;28;20057;-75
2023/10/15 10:10:33;;;;;;;6.47;3.50;;;;;;;22.72;52.34;92653.66;5076906;28;20095;-76
2023/10/15 10:13:16;;;;;;;7.97;3.22;;;;;;;22.88;51.81;92663.75;5070244;28;20053;-75
2023/10/15 10:15:52;;;;;;;8.07;2.90;;;;;;;23.20;52.27;92654.78;5068770;28;20394;-75
2023/10/15 10:18:21;;;;;;;;;;;;;;;23.13;50.09;92664.19;5075925;28;20052;-76
2023/10/15 10:20:48;;;;;;;10.60;2.97;;;;;;;23.17;50.39;92647.56;5070093;28;19935;-75
2023/10/15 10:23:16;;;;;;;5.75;3.08;;;;;;;23.20;49.73;92646.94;5068382;28;20048;-75
2023/10/15 10:25:46;;;;;;;7.63;2.75;;;;;;;23.45;50.30;92641.34;5074128;28;20142;-75
2023/10/15 10:28:14;;;;;;;6.18;3.03;;;;;;;23.35;49.38;92630.09;5070621;28;20522;-75
2023/10/15 10:30:52;;;;;;;9.80;3.03;;;;;;;23.69;49.93;92635.69;5073741;28;20053;-75
2023/10/15 10:33:55;;;;;;;5.95;2.75;;;;;;;24.03;48.94;92634.19;5069739;28;20094;-75
2023/10/15 10:36:25;;;;;;;5.30;2.92;;;;;;;24.31;48.36;92642.88;5060285;28;20044;-75
2023/10/15 10:39:02;;;;;;;8.93;2.80;;;;;;;24.47;48.12;92636.06;5078582;28;20048;-75
2023/10/15 10:41:39;;;;;;;8.07;2.85;;;;;;;24.60;48.07;92630.94;5087417;28;20135;-76
2023/10/15 10:44:07;;;;;;;13.52;4.13;;;;;;;24.64;46.62;92632.63;5078497;28;20049;-75
2023/10/15 10:46:42;;;;;;;7.82;3.53;;;;;;;24.59;47.16;92626.78;5076605;28;20048;-75
2023/10/15 10:49:13;;;;;;;8.52;2.95;;;;;;;24.45;46.11;92619.84;5071983;28;20114;-76
2023/10/15 10:51:41;;;;;;;6.95;3.30;;;;;;;24.02;46.93;92621.38;5068202;28;20102;-75
2023/10/15 10:54:27;;;;;;;58.70;24.20;;;;;;;24.19;47.04;92606.75;5080843;28;20048;-75
2023/10/15 10:57:01;;;;;;;8.68;4.00;;;;;;;23.94;47.50;92607.19;5074436;28;20048;-75
2023/10/15 10:59:30;;;;;;;5.55;3.53;;;;;;;23.89;47.58;92607.34;5066261;28;20136;-76
2023/10/15 11:01:57;;;;;;;5.13;2.75;;;;;;;24.18;47.56;92594.69;5080063;28;20137;-75
2023/10/15 11:04:25;;;;;;;8.70;3.20;;;;;;;24.27;46.10;92593.63;5080255;28;20051;-75
2023/10/15 11:06:51;;;;;;;8.80;2.75;;;;;;;24.35;47.38;92578.94;5074896;28;20052;-75
2023/10/15 11:09:20;;;;;;;8.00;3.30;;;;;;;24.19;47.09;92583.13;5063901;28;20416;-75
2023/10/15 11:11:48;;;;;;;5.38;2.65;;;;;;;23.82;46.65;92567.69;5074923;28;20067;-75
2023/10/15 11:14:18;;;;;;;4.18;2.85;;;;;;;23.72;47.15;92582.66;5075237;28;20484;-75
2023/10/15 11:16:45;;;;;;;6.55;2.85;;;;;;;23.47;48.26;92571.06;5068283;28;20414;-76
2023/10/15 11:19:16;;;;;;;5.10;2.85;;;;;;;23.48;47.99;92567.34;5068438;28;20048;-76
2023/10/15 11:21:43;;;;;;;7.32;3.03;;;;;;;23.67;47.72;92579.41;5065891;28;20060;-76
2023/10/15 11:24:10;;;;;;;7.80;2.67;;;;;;;23.70;47.71;92563.81;5072293;28;20053;-75
2023/10/15 11:26:41;;;;;;;7.80;2.90;;;;;;;23.42;47.65;92534.50;5066855;28;20057;-75
2023/10/15 11:29:09;;;;;;;9.40;2.90;;;;;;;23.87;48.01;92563.06;5072148;28;20048;-75
2023/10/15 11:31:42;;;;;;;6.25;3.00;;;;;;;24.09;48.35;92547.50;5070409;28;20126;-75
2023/10/15 11:34:10;;;;;;;8.60;2.90;;;;;;;24.23;46.76;92552.56;5072748;28;20407;-75